sensor_id;sensor_type;location;lat;lon;timestamp;P1;durP1;ratioP1;P2;durP2;ratioP2
18425;SDS011;9340;48.756;9.226;2023-08-20T00:01:17;12.48;;;11.57;;
18425;SDS011;9340;48.756;9.226;2023-08-20T00:03:48;13.15;;;12.15;;
18425;SDS011;9340;48.756;9.226;2023-08-20T00:06:15;12.57;;;11.65;;
18425;SDS011;9340;48.756;9.226;2023-08-20T00:08:44;13.00;;;12.02;;
18425;SDS011;9340;48.756;9.226;2023-08-20T00:11:11;12.88;;;11.95;;
18425;SDS011;9340;48.756;9.226;2023-08-20T00:13:38;11.88;;;10.88;;
18425;SDS011;9340;48.756;9.226;2023-08-20T00:16:05;12.25;;;11.35;;
18425;SDS011;9340;48.756;9.226;2023-08-20T00:18:32;13.48;;;12.48;;
18425;SDS011;9340;48.756;9.226;2023-08-20T00:20:59;11.93;;;11.02;;
18425;SDS011;9340;48.756;9.226;2023-08-20T00:23:26;12.65;;;11.52;;
18425;SDS011;9340;48.756;9.226;2023-08-20T00:25:55;12.32;;;11.52;;
18425;SDS011;9340;48.756;9.226;2023-08-20T00:28:22;12.40;;;11.50;;
18425;SDS011;9340;48.756;9.226;2023-08-20T00:30:49;11.77;;;10.77;;
18425;SDS011;9340;48.756;9.226;2023-08-20T00:33:17;11.65;;;10.85;;
18425;SDS011;9340;48.756;9.226;2023-08-20T00:35:43;11.85;;;10.95;;
18425;SDS011;9340;48.756;9.226;2023-08-20T00:38:10;12.90;;;11.85;;
18425;SDS011;9340;48.756;9.226;2023-08-20T00:40:37;11.55;;;10.73;;
18425;SDS011;9340;48.756;9.226;2023-08-20T00:43:05;12.13;;;11.30;;
18425;SDS011;9340;48.756;9.226;2023-08-20T00:45:31;12.02;;;11.10;;
18425;SDS011;9340;48.756;9.226;2023-08-20T00:47:59;12.50;;;11.50;;
18425;SDS011;9340;48.756;9.226;2023-08-20T00:50:27;12.95;;;11.80;;
18425;SDS011;9340;48.756;9.226;2023-08-20T00:52:54;11.63;;;10.70;;
18425;SDS011;9340;48.756;9.226;2023-08-20T00:55:21;11.75;;;10.90;;
18425;SDS011;9340;48.756;9.226;2023-08-20T00:57:47;12.70;;;11.80;;
18425;SDS011;9340;48.756;9.226;2023-08-20T01:00:15;12.70;;;11.80;;
18425;SDS011;9340;48.756;9.226;2023-08-20T01:02:44;12.68;;;11.68;;
18425;SDS011;9340;48.756;9.226;2023-08-20T01:05:11;12.70;;;11.77;;
18425;SDS011;9340;48.756;9.226;2023-08-20T01:07:48;13.77;;;12.77;;
18425;SDS011;9340;48.756;9.226;2023-08-20T01:10:29;13.52;;;12.35;;
18425;SDS011;9340;48.756;9.226;2023-08-20T01:13:05;13.38;;;12.18;;
18425;SDS011;9340;48.756;9.226;2023-08-20T01:15:34;13.95;;;12.82;;
18425;SDS011;9340;48.756;9.226;2023-08-20T01:18:01;13.70;;;12.80;;
18425;SDS011;9340;48.756;9.226;2023-08-20T01:20:29;13.73;;;12.63;;
18425;SDS011;9340;48.756;9.226;2023-08-20T01:23:19;13.43;;;12.52;;
18425;SDS011;9340;48.756;9.226;2023-08-20T01:25:58;12.65;;;11.65;;
18425;SDS011;9340;48.756;9.226;2023-08-20T01:28:35;13.85;;;12.65;;
18425;SDS011;9340;48.756;9.226;2023-08-20T01:31:04;13.95;;;12.80;;
18425;SDS011;9340;48.756;9.226;2023-08-20T01:33:32;14.13;;;13.02;;
18425;SDS011;9340;48.756;9.226;2023-08-20T01:35:59;12.88;;;11.98;;
18425;SDS011;9340;48.756;9.226;2023-08-20T01:38:26;14.15;;;13.20;;
18425;SDS011;9340;48.756;9.226;2023-08-20T01:40:52;14.45;;;13.18;;
18425;SDS011;9340;48.756;9.226;2023-08-20T01:43:21;13.15;;;11.88;;
18425;SDS011;9340;48.756;9.226;2023-08-20T01:45:49;14.98;;;13.88;;
18425;SDS011;9340;48.756;9.226;2023-08-20T01:48:15;12.75;;;11.85;;
18425;SDS011;9340;48.756;9.226;2023-08-20T01:50:42;14.00;;;12.90;;
18425;SDS011;9340;48.756;9.226;2023-08-20T01:53:09;13.00;;;11.95;;
18425;SDS011;9340;48.756;9.226;2023-08-20T01:55:36;13.23;;;12.20;;
18425;SDS011;9340;48.756;9.226;2023-08-20T01:58:02;13.15;;;12.25;;
18425;SDS011;9340;48.756;9.226;2023-08-20T02:00:29;14.13;;;12.90;;
18425;SDS011;9340;48.756;9.226;2023-08-20T02:03:00;15.52;;;14.20;;
18425;SDS011;9340;48.756;9.226;2023-08-20T02:05:27;15.48;;;14.20;;
18425;SDS011;9340;48.756;9.226;2023-08-20T02:07:54;14.88;;;13.77;;
18425;SDS011;9340;48.756;9.226;2023-08-20T02:10:20;12.80;;;11.93;;
18425;SDS011;9340;48.756;9.226;2023-08-20T02:12:47;13.18;;;12.18;;
18425;SDS011;9340;48.756;9.226;2023-08-20T02:15:14;15.18;;;13.95;;
18425;SDS011;9340;48.756;9.226;2023-08-20T02:17:40;14.98;;;13.77;;
18425;SDS011;9340;48.756;9.226;2023-08-20T02:20:09;15.15;;;14.05;;
18425;SDS011;9340;48.756;9.226;2023-08-20T02:22:36;15.25;;;14.02;;
18425;SDS011;9340;48.756;9.226;2023-08-20T02:25:03;14.30;;;13.20;;
18425;SDS011;9340;48.756;9.226;2023-08-20T02:27:30;13.98;;;12.98;;
18425;SDS011;9340;48.756;9.226;2023-08-20T02:29:56;15.10;;;14.07;;
18425;SDS011;9340;48.756;9.226;2023-08-20T02:32:23;14.95;;;13.77;;
18425;SDS011;9340;48.756;9.226;2023-08-20T02:34:50;15.43;;;14.32;;
18425;SDS011;9340;48.756;9.226;2023-08-20T02:37:19;15.05;;;13.82;;
18425;SDS011;9340;48.756;9.226;2023-08-20T02:39:46;15.38;;;14.27;;
18425;SDS011;9340;48.756;9.226;2023-08-20T02:42:13;15.32;;;14.25;;
18425;SDS011;9340;48.756;9.226;2023-08-20T02:44:39;14.57;;;13.57;;
18425;SDS011;9340;48.756;9.226;2023-08-20T02:47:06;14.88;;;13.77;;
18425;SDS011;9340;48.756;9.226;2023-08-20T02:49:32;15.00;;;13.80;;
18425;SDS011;9340;48.756;9.226;2023-08-20T02:51:59;14.55;;;13.45;;
18425;SDS011;9340;48.756;9.226;2023-08-20T02:54:27;14.73;;;13.73;;
18425;SDS011;9340;48.756;9.226;2023-08-20T02:56:57;14.30;;;13.20;;
18425;SDS011;9340;48.756;9.226;2023-08-20T02:59:24;14.50;;;13.45;;
18425;SDS011;9340;48.756;9.226;2023-08-20T03:01:51;15.10;;;13.77;;
18425;SDS011;9340;48.756;9.226;2023-08-20T03:04:17;15.63;;;14.52;;
18425;SDS011;9340;48.756;9.226;2023-08-20T03:06:44;15.27;;;14.07;;
18425;SDS011;9340;48.756;9.226;2023-08-20T03:09:10;13.95;;;12.75;;
18425;SDS011;9340;48.756;9.226;2023-08-20T03:11:39;14.88;;;13.77;;
18425;SDS011;9340;48.756;9.226;2023-08-20T03:14:05;15.52;;;14.32;;
18425;SDS011;9340;48.756;9.226;2023-08-20T03:16:32;15.18;;;14.02;;
18425;SDS011;9340;48.756;9.226;2023-08-20T03:18:59;14.40;;;13.30;;
18425;SDS011;9340;48.756;9.226;2023-08-20T03:21:25;14.18;;;13.02;;
18425;SDS011;9340;48.756;9.226;2023-08-20T03:23:52;16.95;;;15.55;;
18425;SDS011;9340;48.756;9.226;2023-08-20T03:26:18;15.95;;;14.75;;
18425;SDS011;9340;48.756;9.226;2023-08-20T03:28:46;15.60;;;14.38;;
18425;SDS011;9340;48.756;9.226;2023-08-20T03:31:13;15.63;;;14.35;;
18425;SDS011;9340;48.756;9.226;2023-08-20T03:33:40;15.25;;;14.05;;
18425;SDS011;9340;48.756;9.226;2023-08-20T03:36:06;15.57;;;14.25;;
18425;SDS011;9340;48.756;9.226;2023-08-20T03:38:33;15.95;;;14.75;;
18425;SDS011;9340;48.756;9.226;2023-08-20T03:41:00;14.48;;;13.48;;
18425;SDS011;9340;48.756;9.226;2023-08-20T03:43:26;16.73;;;15.38;;
18425;SDS011;9340;48.756;9.226;2023-08-20T03:45:54;14.68;;;13.57;;
18425;SDS011;9340;48.756;9.226;2023-08-20T03:48:21;15.95;;;14.75;;
18425;SDS011;9340;48.756;9.226;2023-08-20T03:50:48;16.98;;;15.68;;
18425;SDS011;9340;48.756;9.226;2023-08-20T03:53:14;17.33;;;16.02;;
18425;SDS011;9340;48.756;9.226;2023-08-20T03:55:41;16.70;;;15.50;;
18425;SDS011;9340;48.756;9.226;2023-08-20T03:58:13;16.58;;;15.35;;
18425;SDS011;9340;48.756;9.226;2023-08-20T04:00:39;17.35;;;16.05;;
18425;SDS011;9340;48.756;9.226;2023-08-20T04:03:07;15.23;;;14.13;;
18425;SDS011;9340;48.756;9.226;2023-08-20T04:05:35;16.65;;;15.35;;
18425;SDS011;9340;48.756;9.226;2023-08-20T04:08:02;15.15;;;14.10;;
18425;SDS011;9340;48.756;9.226;2023-08-20T04:10:29;15.73;;;14.52;;
18425;SDS011;9340;48.756;9.226;2023-08-20T04:12:56;17.83;;;16.25;;
18425;SDS011;9340;48.756;9.226;2023-08-20T04:15:23;17.25;;;15.93;;
18425;SDS011;9340;48.756;9.226;2023-08-20T04:17:49;17.80;;;16.33;;
18425;SDS011;9340;48.756;9.226;2023-08-20T04:20:17;19.73;;;17.98;;
18425;SDS011;9340;48.756;9.226;2023-08-20T04:22:44;16.67;;;15.45;;
18425;SDS011;9340;48.756;9.226;2023-08-20T04:25:11;13.50;;;12.40;;
18425;SDS011;9340;48.756;9.226;2023-08-20T04:27:37;14.90;;;13.80;;
18425;SDS011;9340;48.756;9.226;2023-08-20T04:30:05;15.63;;;14.43;;
18425;SDS011;9340;48.756;9.226;2023-08-20T04:32:32;15.20;;;14.15;;
18425;SDS011;9340;48.756;9.226;2023-08-20T04:34:59;18.00;;;16.70;;
18425;SDS011;9340;48.756;9.226;2023-08-20T04:37:27;15.43;;;14.32;;
18425;SDS011;9340;48.756;9.226;2023-08-20T04:39:54;15.10;;;13.85;;
18425;SDS011;9340;48.756;9.226;2023-08-20T04:42:20;17.05;;;15.73;;
18425;SDS011;9340;48.756;9.226;2023-08-20T04:44:47;17.38;;;16.08;;
18425;SDS011;9340;48.756;9.226;2023-08-20T04:47:14;15.82;;;14.52;;
18425;SDS011;9340;48.756;9.226;2023-08-20T04:49:41;17.40;;;15.85;;
18425;SDS011;9340;48.756;9.226;2023-08-20T04:52:08;15.50;;;14.38;;
18425;SDS011;9340;48.756;9.226;2023-08-20T04:54:36;18.02;;;16.60;;
18425;SDS011;9340;48.756;9.226;2023-08-20T04:57:03;17.60;;;16.30;;
18425;SDS011;9340;48.756;9.226;2023-08-20T04:59:30;18.30;;;17.00;;
18425;SDS011;9340;48.756;9.226;2023-08-20T05:01:56;18.30;;;16.98;;
18425;SDS011;9340;48.756;9.226;2023-08-20T05:04:23;16.27;;;14.95;;
18425;SDS011;9340;48.756;9.226;2023-08-20T05:06:50;17.75;;;16.48;;
18425;SDS011;9340;48.756;9.226;2023-08-20T05:09:16;15.88;;;14.68;;
18425;SDS011;9340;48.756;9.226;2023-08-20T05:11:44;16.95;;;15.63;;
18425;SDS011;9340;48.756;9.226;2023-08-20T05:14:11;15.80;;;14.70;;
18425;SDS011;9340;48.756;9.226;2023-08-20T05:16:38;16.55;;;15.13;;
18425;SDS011;9340;48.756;9.226;2023-08-20T05:19:04;15.63;;;14.50;;
18425;SDS011;9340;48.756;9.226;2023-08-20T05:21:31;14.57;;;13.50;;
18425;SDS011;9340;48.756;9.226;2023-08-20T05:23:58;13.85;;;12.88;;
18425;SDS011;9340;48.756;9.226;2023-08-20T05:26:24;15.50;;;14.15;;
18425;SDS011;9340;48.756;9.226;2023-08-20T05:28:52;16.33;;;15.13;;
18425;SDS011;9340;48.756;9.226;2023-08-20T05:31:19;16.13;;;14.85;;
18425;SDS011;9340;48.756;9.226;2023-08-20T05:33:46;19.42;;;17.73;;
18425;SDS011;9340;48.756;9.226;2023-08-20T05:36:13;21.67;;;19.77;;
18425;SDS011;9340;48.756;9.226;2023-08-20T05:38:40;22.38;;;20.70;;
18425;SDS011;9340;48.756;9.226;2023-08-20T05:41:07;16.08;;;14.88;;
18425;SDS011;9340;48.756;9.226;2023-08-20T05:43:34;15.02;;;13.98;;
18425;SDS011;9340;48.756;9.226;2023-08-20T05:46:03;14.73;;;13.70;;
18425;SDS011;9340;48.756;9.226;2023-08-20T05:48:30;14.73;;;13.60;;
18425;SDS011;9340;48.756;9.226;2023-08-20T05:50:56;15.13;;;14.00;;
18425;SDS011;9340;48.756;9.226;2023-08-20T05:53:23;15.15;;;13.95;;
18425;SDS011;9340;48.756;9.226;2023-08-20T05:55:50;15.43;;;14.30;;
18425;SDS011;9340;48.756;9.226;2023-08-20T05:58:16;14.43;;;13.23;;
18425;SDS011;9340;48.756;9.226;2023-08-20T06:00:43;15.38;;;14.18;;
18425;SDS011;9340;48.756;9.226;2023-08-20T06:03:11;14.20;;;13.20;;
18425;SDS011;9340;48.756;9.226;2023-08-20T06:05:38;13.73;;;12.73;;
18425;SDS011;9340;48.756;9.226;2023-08-20T06:08:05;13.25;;;11.90;;
18425;SDS011;9340;48.756;9.226;2023-08-20T06:10:32;14.48;;;13.07;;
18425;SDS011;9340;48.756;9.226;2023-08-20T06:12:58;13.63;;;12.73;;
18425;SDS011;9340;48.756;9.226;2023-08-20T06:15:25;12.40;;;11.40;;
18425;SDS011;9340;48.756;9.226;2023-08-20T06:17:52;12.82;;;11.93;;
18425;SDS011;9340;48.756;9.226;2023-08-20T06:20:20;13.07;;;12.07;;
18425;SDS011;9340;48.756;9.226;2023-08-20T06:22:46;13.10;;;11.90;;
18425;SDS011;9340;48.756;9.226;2023-08-20T06:25:13;13.88;;;12.80;;
18425;SDS011;9340;48.756;9.226;2023-08-20T06:27:41;12.95;;;12.00;;
18425;SDS011;9340;48.756;9.226;2023-08-20T06:30:08;12.93;;;11.93;;
18425;SDS011;9340;48.756;9.226;2023-08-20T06:32:35;11.85;;;10.95;;
18425;SDS011;9340;48.756;9.226;2023-08-20T06:35:01;13.57;;;12.32;;
18425;SDS011;9340;48.756;9.226;2023-08-20T06:37:30;12.55;;;11.65;;
18425;SDS011;9340;48.756;9.226;2023-08-20T06:39:56;11.73;;;10.82;;
18425;SDS011;9340;48.756;9.226;2023-08-20T06:42:23;12.85;;;11.75;;
18425;SDS011;9340;48.756;9.226;2023-08-20T06:44:49;12.30;;;11.32;;
18425;SDS011;9340;48.756;9.226;2023-08-20T06:47:16;12.77;;;11.77;;
18425;SDS011;9340;48.756;9.226;2023-08-20T06:49:43;13.10;;;12.00;;
18425;SDS011;9340;48.756;9.226;2023-08-20T06:52:09;13.27;;;12.18;;
18425;SDS011;9340;48.756;9.226;2023-08-20T06:54:37;12.55;;;11.65;;
18425;SDS011;9340;48.756;9.226;2023-08-20T06:57:04;12.20;;;11.30;;
18425;SDS011;9340;48.756;9.226;2023-08-20T06:59:31;14.05;;;12.93;;
18425;SDS011;9340;48.756;9.226;2023-08-20T07:01:57;13.93;;;12.82;;
18425;SDS011;9340;48.756;9.226;2023-08-20T07:04:24;13.70;;;12.60;;
18425;SDS011;9340;48.756;9.226;2023-08-20T07:06:51;14.00;;;12.90;;
18425;SDS011;9340;48.756;9.226;2023-08-20T07:09:17;12.88;;;11.80;;
18425;SDS011;9340;48.756;9.226;2023-08-20T07:11:45;12.77;;;11.63;;
18425;SDS011;9340;48.756;9.226;2023-08-20T07:14:12;14.07;;;12.75;;
18425;SDS011;9340;48.756;9.226;2023-08-20T07:16:39;13.05;;;12.00;;
18425;SDS011;9340;48.756;9.226;2023-08-20T07:19:06;13.13;;;12.13;;
18425;SDS011;9340;48.756;9.226;2023-08-20T07:21:32;13.15;;;12.00;;
18425;SDS011;9340;48.756;9.226;2023-08-20T07:23:59;13.30;;;12.13;;
18425;SDS011;9340;48.756;9.226;2023-08-20T07:26:27;13.77;;;12.68;;
18425;SDS011;9340;48.756;9.226;2023-08-20T07:28:55;13.50;;;12.27;;
18425;SDS011;9340;48.756;9.226;2023-08-20T07:31:24;14.48;;;13.27;;
18425;SDS011;9340;48.756;9.226;2023-08-20T07:33:52;13.80;;;12.60;;
18425;SDS011;9340;48.756;9.226;2023-08-20T07:36:20;15.00;;;13.80;;
18425;SDS011;9340;48.756;9.226;2023-08-20T07:38:48;13.48;;;12.27;;
18425;SDS011;9340;48.756;9.226;2023-08-20T07:41:15;12.95;;;11.85;;
18425;SDS011;9340;48.756;9.226;2023-08-20T07:43:42;13.40;;;12.30;;
18425;SDS011;9340;48.756;9.226;2023-08-20T07:46:11;12.93;;;11.80;;
18425;SDS011;9340;48.756;9.226;2023-08-20T07:48:37;12.90;;;11.80;;
18425;SDS011;9340;48.756;9.226;2023-08-20T07:51:04;12.35;;;11.45;;
18425;SDS011;9340;48.756;9.226;2023-08-20T07:53:32;12.13;;;11.13;;
18425;SDS011;9340;48.756;9.226;2023-08-20T07:55:59;12.20;;;11.15;;
18425;SDS011;9340;48.756;9.226;2023-08-20T07:58:26;13.02;;;12.02;;
18425;SDS011;9340;48.756;9.226;2023-08-20T08:00:54;12.80;;;11.70;;
18425;SDS011;9340;48.756;9.226;2023-08-20T08:03:22;11.13;;;10.23;;
18425;SDS011;9340;48.756;9.226;2023-08-20T08:05:50;12.25;;;11.20;;
18425;SDS011;9340;48.756;9.226;2023-08-20T08:08:19;11.55;;;10.50;;
18425;SDS011;9340;48.756;9.226;2023-08-20T08:10:45;13.00;;;11.82;;
18425;SDS011;9340;48.756;9.226;2023-08-20T08:13:12;13.40;;;12.30;;
18425;SDS011;9340;48.756;9.226;2023-08-20T08:15:40;12.82;;;11.63;;
18425;SDS011;9340;48.756;9.226;2023-08-20T08:18:07;12.38;;;11.38;;
18425;SDS011;9340;48.756;9.226;2023-08-20T08:20:35;12.48;;;11.48;;
18425;SDS011;9340;48.756;9.226;2023-08-20T08:23:02;11.73;;;10.93;;
18425;SDS011;9340;48.756;9.226;2023-08-20T08:25:28;12.52;;;11.52;;
18425;SDS011;9340;48.756;9.226;2023-08-20T08:27:56;12.32;;;11.38;;
18425;SDS011;9340;48.756;9.226;2023-08-20T08:30:22;13.38;;;12.27;;
18425;SDS011;9340;48.756;9.226;2023-08-20T08:32:49;12.13;;;11.18;;
18425;SDS011;9340;48.756;9.226;2023-08-20T08:35:16;12.13;;;11.10;;
18425;SDS011;9340;48.756;9.226;2023-08-20T08:37:44;13.35;;;12.25;;
18425;SDS011;9340;48.756;9.226;2023-08-20T08:40:11;14.23;;;12.90;;
18425;SDS011;9340;48.756;9.226;2023-08-20T08:42:38;13.38;;;12.15;;
18425;SDS011;9340;48.756;9.226;2023-08-20T08:45:07;12.25;;;11.32;;
18425;SDS011;9340;48.756;9.226;2023-08-20T08:47:35;13.23;;;12.13;;
18425;SDS011;9340;48.756;9.226;2023-08-20T08:50:02;11.48;;;10.45;;
18425;SDS011;9340;48.756;9.226;2023-08-20T08:52:30;13.73;;;12.55;;
18425;SDS011;9340;48.756;9.226;2023-08-20T08:54:58;12.80;;;11.52;;
18425;SDS011;9340;48.756;9.226;2023-08-20T08:57:25;12.63;;;11.57;;
18425;SDS011;9340;48.756;9.226;2023-08-20T08:59:52;12.50;;;11.50;;
18425;SDS011;9340;48.756;9.226;2023-08-20T09:02:18;12.68;;;11.50;;
18425;SDS011;9340;48.756;9.226;2023-08-20T09:04:45;12.25;;;11.13;;
18425;SDS011;9340;48.756;9.226;2023-08-20T09:07:12;12.18;;;11.07;;
18425;SDS011;9340;48.756;9.226;2023-08-20T09:09:41;13.93;;;12.82;;
18425;SDS011;9340;48.756;9.226;2023-08-20T09:12:13;12.75;;;11.60;;
18425;SDS011;9340;48.756;9.226;2023-08-20T09:14:42;12.73;;;11.63;;
18425;SDS011;9340;48.756;9.226;2023-08-20T09:17:11;12.75;;;11.82;;
18425;SDS011;9340;48.756;9.226;2023-08-20T09:19:38;13.18;;;11.05;;
18425;SDS011;9340;48.756;9.226;2023-08-20T09:22:04;12.55;;;11.52;;
18425;SDS011;9340;48.756;9.226;2023-08-20T09:24:32;12.10;;;11.30;;
18425;SDS011;9340;48.756;9.226;2023-08-20T09:27:01;12.60;;;11.63;;
18425;SDS011;9340;48.756;9.226;2023-08-20T09:29:32;13.95;;;12.80;;
18425;SDS011;9340;48.756;9.226;2023-08-20T09:32:00;11.85;;;11.02;;
18425;SDS011;9340;48.756;9.226;2023-08-20T09:34:35;11.38;;;10.57;;
18425;SDS011;9340;48.756;9.226;2023-08-20T09:37:02;12.43;;;11.35;;
18425;SDS011;9340;48.756;9.226;2023-08-20T09:39:29;14.10;;;12.40;;
18425;SDS011;9340;48.756;9.226;2023-08-20T09:41:56;13.05;;;11.85;;
18425;SDS011;9340;48.756;9.226;2023-08-20T09:44:25;11.60;;;10.60;;
18425;SDS011;9340;48.756;9.226;2023-08-20T09:46:59;11.20;;;10.15;;
18425;SDS011;9340;48.756;9.226;2023-08-20T09:49:26;11.57;;;10.68;;
18425;SDS011;9340;48.756;9.226;2023-08-20T09:51:56;12.48;;;11.38;;
18425;SDS011;9340;48.756;9.226;2023-08-20T09:54:26;11.40;;;10.27;;
18425;SDS011;9340;48.756;9.226;2023-08-20T09:57:01;11.07;;;10.05;;
18425;SDS011;9340;48.756;9.226;2023-08-20T09:59:32;10.32;;;9.57;;
18425;SDS011;9340;48.756;9.226;2023-08-20T10:02:02;10.50;;;9.60;;
18425;SDS011;9340;48.756;9.226;2023-08-20T10:04:29;11.23;;;10.43;;
18425;SDS011;9340;48.756;9.226;2023-08-20T10:06:57;11.85;;;10.85;;
18425;SDS011;9340;48.756;9.226;2023-08-20T10:09:26;11.95;;;11.15;;
18425;SDS011;9340;48.756;9.226;2023-08-20T10:11:53;11.55;;;10.48;;
18425;SDS011;9340;48.756;9.226;2023-08-20T10:14:20;11.70;;;10.77;;
18425;SDS011;9340;48.756;9.226;2023-08-20T10:16:46;11.80;;;10.77;;
18425;SDS011;9340;48.756;9.226;2023-08-20T10:19:15;13.57;;;12.38;;
18425;SDS011;9340;48.756;9.226;2023-08-20T10:21:43;12.05;;;11.05;;
18425;SDS011;9340;48.756;9.226;2023-08-20T10:24:10;11.90;;;10.80;;
18425;SDS011;9340;48.756;9.226;2023-08-20T10:26:45;12.65;;;11.65;;
18425;SDS011;9340;48.756;9.226;2023-08-20T10:32:04;9.60;;;8.68;;
18425;SDS011;9340;48.756;9.226;2023-08-20T10:34:33;10.93;;;10.05;;
18425;SDS011;9340;48.756;9.226;2023-08-20T10:37:08;10.50;;;9.57;;
18425;SDS011;9340;48.756;9.226;2023-08-20T10:39:35;11.40;;;10.30;;
18425;SDS011;9340;48.756;9.226;2023-08-20T10:42:08;11.05;;;10.15;;
18425;SDS011;9340;48.756;9.226;2023-08-20T10:45:00;11.13;;;9.85;;
18425;SDS011;9340;48.756;9.226;2023-08-20T10:47:36;11.18;;;10.32;;
18425;SDS011;9340;48.756;9.226;2023-08-20T10:50:09;11.23;;;10.32;;
18425;SDS011;9340;48.756;9.226;2023-08-20T10:52:40;10.13;;;9.18;;
18425;SDS011;9340;48.756;9.226;2023-08-20T10:55:07;11.00;;;9.80;;
18425;SDS011;9340;48.756;9.226;2023-08-20T10:57:34;10.27;;;9.48;;
18425;SDS011;9340;48.756;9.226;2023-08-20T11:00:02;10.85;;;9.82;;
18425;SDS011;9340;48.756;9.226;2023-08-20T11:02:35;11.20;;;10.13;;
18425;SDS011;9340;48.756;9.226;2023-08-20T11:05:02;9.88;;;8.98;;
18425;SDS011;9340;48.756;9.226;2023-08-20T11:07:31;9.90;;;9.20;;
18425;SDS011;9340;48.756;9.226;2023-08-20T11:10:00;10.55;;;9.55;;
18425;SDS011;9340;48.756;9.226;2023-08-20T11:12:29;9.77;;;8.88;;
18425;SDS011;9340;48.756;9.226;2023-08-20T11:14:59;9.57;;;8.68;;
18425;SDS011;9340;48.756;9.226;2023-08-20T11:17:27;10.30;;;9.40;;
18425;SDS011;9340;48.756;9.226;2023-08-20T11:19:55;9.80;;;9.05;;
18425;SDS011;9340;48.756;9.226;2023-08-20T11:22:21;9.43;;;8.63;;
18425;SDS011;9340;48.756;9.226;2023-08-20T11:24:49;9.70;;;8.73;;
18425;SDS011;9340;48.756;9.226;2023-08-20T11:27:16;9.13;;;8.43;;
18425;SDS011;9340;48.756;9.226;2023-08-20T11:29:43;9.70;;;8.63;;
18425;SDS011;9340;48.756;9.226;2023-08-20T11:32:09;9.00;;;8.27;;
18425;SDS011;9340;48.756;9.226;2023-08-20T11:34:36;10.00;;;9.10;;
18425;SDS011;9340;48.756;9.226;2023-08-20T11:37:04;9.65;;;8.80;;
18425;SDS011;9340;48.756;9.226;2023-08-20T11:39:30;9.23;;;8.43;;
18425;SDS011;9340;48.756;9.226;2023-08-20T11:41:58;9.98;;;9.18;;
18425;SDS011;9340;48.756;9.226;2023-08-20T11:44:26;9.82;;;8.85;;
18425;SDS011;9340;48.756;9.226;2023-08-20T11:46:53;9.27;;;8.57;;
18425;SDS011;9340;48.756;9.226;2023-08-20T11:49:26;9.90;;;9.10;;
18425;SDS011;9340;48.756;9.226;2023-08-20T11:51:55;9.70;;;8.80;;
18425;SDS011;9340;48.756;9.226;2023-08-20T11:54:22;10.07;;;9.27;;
18425;SDS011;9340;48.756;9.226;2023-08-20T11:56:51;8.77;;;8.00;;
18425;SDS011;9340;48.756;9.226;2023-08-20T11:59:20;9.68;;;8.90;;
18425;SDS011;9340;48.756;9.226;2023-08-20T12:01:51;9.13;;;8.43;;
18425;SDS011;9340;48.756;9.226;2023-08-20T12:04:18;9.68;;;8.98;;
18425;SDS011;9340;48.756;9.226;2023-08-20T12:06:52;10.05;;;9.07;;
18425;SDS011;9340;48.756;9.226;2023-08-20T12:09:29;12.68;;;8.55;;
18425;SDS011;9340;48.756;9.226;2023-08-20T12:11:55;9.55;;;8.75;;
18425;SDS011;9340;48.756;9.226;2023-08-20T12:14:24;9.32;;;8.48;;
18425;SDS011;9340;48.756;9.226;2023-08-20T12:16:51;9.57;;;8.43;;
18425;SDS011;9340;48.756;9.226;2023-08-20T12:19:19;9.15;;;8.30;;
18425;SDS011;9340;48.756;9.226;2023-08-20T12:21:46;9.55;;;8.68;;
18425;SDS011;9340;48.756;9.226;2023-08-20T12:24:14;8.57;;;7.90;;
18425;SDS011;9340;48.756;9.226;2023-08-20T12:26:41;9.30;;;8.43;;
18425;SDS011;9340;48.756;9.226;2023-08-20T12:29:08;8.80;;;8.00;;
18425;SDS011;9340;48.756;9.226;2023-08-20T12:31:36;8.70;;;8.00;;
18425;SDS011;9340;48.756;9.226;2023-08-20T12:34:03;9.48;;;8.65;;
18425;SDS011;9340;48.756;9.226;2023-08-20T12:36:29;8.98;;;8.05;;
18425;SDS011;9340;48.756;9.226;2023-08-20T12:38:56;8.63;;;8.00;;
18425;SDS011;9340;48.756;9.226;2023-08-20T12:41:23;8.73;;;8.02;;
18425;SDS011;9340;48.756;9.226;2023-08-20T12:43:50;8.45;;;7.53;;
18425;SDS011;9340;48.756;9.226;2023-08-20T12:46:16;7.65;;;7.05;;
18425;SDS011;9340;48.756;9.226;2023-08-20T12:48:44;8.45;;;7.65;;
18425;SDS011;9340;48.756;9.226;2023-08-20T12:51:11;8.25;;;7.57;;
18425;SDS011;9340;48.756;9.226;2023-08-20T12:53:38;8.40;;;7.70;;
18425;SDS011;9340;48.756;9.226;2023-08-20T12:56:05;8.35;;;7.60;;
18425;SDS011;9340;48.756;9.226;2023-08-20T12:58:32;8.75;;;7.97;;
18425;SDS011;9340;48.756;9.226;2023-08-20T13:00:59;7.95;;;7.35;;
18425;SDS011;9340;48.756;9.226;2023-08-20T13:03:26;7.93;;;7.22;;
18425;SDS011;9340;48.756;9.226;2023-08-20T13:05:55;8.68;;;7.82;;
18425;SDS011;9340;48.756;9.226;2023-08-20T13:08:22;8.30;;;7.50;;
18425;SDS011;9340;48.756;9.226;2023-08-20T13:10:50;8.40;;;7.68;;
18425;SDS011;9340;48.756;9.226;2023-08-20T13:13:20;7.93;;;7.28;;
18425;SDS011;9340;48.756;9.226;2023-08-20T13:15:48;9.02;;;8.05;;
18425;SDS011;9340;48.756;9.226;2023-08-20T13:18:15;8.80;;;7.90;;
18425;SDS011;9340;48.756;9.226;2023-08-20T13:20:42;8.45;;;7.65;;
18425;SDS011;9340;48.756;9.226;2023-08-20T13:23:10;8.30;;;7.55;;
18425;SDS011;9340;48.756;9.226;2023-08-20T13:25:37;7.90;;;7.30;;
18425;SDS011;9340;48.756;9.226;2023-08-20T13:28:04;7.32;;;6.70;;
18425;SDS011;9340;48.756;9.226;2023-08-20T13:30:32;7.50;;;6.90;;
18425;SDS011;9340;48.756;9.226;2023-08-20T13:32:59;7.82;;;7.07;;
18425;SDS011;9340;48.756;9.226;2023-08-20T13:35:26;7.63;;;6.90;;
18425;SDS011;9340;48.756;9.226;2023-08-20T13:37:52;8.35;;;7.53;;
18425;SDS011;9340;48.756;9.226;2023-08-20T13:40:20;8.00;;;7.38;;
18425;SDS011;9340;48.756;9.226;2023-08-20T13:42:47;8.32;;;7.63;;
18425;SDS011;9340;48.756;9.226;2023-08-20T13:45:14;8.40;;;7.20;;
18425;SDS011;9340;48.756;9.226;2023-08-20T13:47:41;7.95;;;7.30;;
18425;SDS011;9340;48.756;9.226;2023-08-20T13:50:09;7.85;;;7.15;;
18425;SDS011;9340;48.756;9.226;2023-08-20T13:52:36;7.53;;;6.93;;
18425;SDS011;9340;48.756;9.226;2023-08-20T13:55:03;8.27;;;7.57;;
18425;SDS011;9340;48.756;9.226;2023-08-20T13:57:31;7.53;;;6.97;;
18425;SDS011;9340;48.756;9.226;2023-08-20T13:59:58;8.85;;;7.25;;
18425;SDS011;9340;48.756;9.226;2023-08-20T14:02:25;7.82;;;7.13;;
18425;SDS011;9340;48.756;9.226;2023-08-20T14:04:51;8.75;;;7.43;;
18425;SDS011;9340;48.756;9.226;2023-08-20T14:07:17;8.40;;;7.72;;
18425;SDS011;9340;48.756;9.226;2023-08-20T14:09:44;9.15;;;6.72;;
18425;SDS011;9340;48.756;9.226;2023-08-20T14:12:11;7.57;;;7.07;;
18425;SDS011;9340;48.756;9.226;2023-08-20T14:14:39;9.13;;;7.75;;
18425;SDS011;9340;48.756;9.226;2023-08-20T14:17:05;8.13;;;7.43;;
18425;SDS011;9340;48.756;9.226;2023-08-20T14:19:32;8.40;;;7.55;;
18425;SDS011;9340;48.756;9.226;2023-08-20T14:21:58;7.40;;;6.80;;
18425;SDS011;9340;48.756;9.226;2023-08-20T14:24:25;8.38;;;7.53;;
18425;SDS011;9340;48.756;9.226;2023-08-20T14:26:52;7.45;;;6.85;;
18425;SDS011;9340;48.756;9.226;2023-08-20T14:29:19;8.00;;;7.40;;
18425;SDS011;9340;48.756;9.226;2023-08-20T14:31:47;9.95;;;8.23;;
18425;SDS011;9340;48.756;9.226;2023-08-20T14:34:14;8.20;;;7.50;;
18425;SDS011;9340;48.756;9.226;2023-08-20T14:36:40;8.52;;;7.85;;
18425;SDS011;9340;48.756;9.226;2023-08-20T14:39:07;8.00;;;7.20;;
18425;SDS011;9340;48.756;9.226;2023-08-20T14:41:34;9.05;;;8.15;;
18425;SDS011;9340;48.756;9.226;2023-08-20T14:44:01;8.00;;;7.30;;
18425;SDS011;9340;48.756;9.226;2023-08-20T14:46:28;9.27;;;8.15;;